sensor_id;sensor_type;location;lat;lon;timestamp;P1;durP1;ratioP1;P2;durP2;ratioP2
12884;SDS011;6510;51.362;7.370;2023-02-14T00:00:19;5.73;;;4.77;;
12884;SDS011;6510;51.362;7.370;2023-02-14T00:02:46;7.03;;;4.97;;
12884;SDS011;6510;51.362;7.370;2023-02-14T00:05:13;6.00;;;5.00;;
12884;SDS011;6510;51.362;7.370;2023-02-14T00:07:39;6.33;;;5.40;;
12884;SDS011;6510;51.362;7.370;2023-02-14T00:10:04;6.73;;;5.23;;
12884;SDS011;6510;51.362;7.370;2023-02-14T00:12:31;6.70;;;4.97;;
12884;SDS011;6510;51.362;7.370;2023-02-14T00:14:56;6.73;;;5.17;;
12884;SDS011;6510;51.362;7.370;2023-02-14T00:17:41;7.50;;;5.23;;
12884;SDS011;6510;51.362;7.370;2023-02-14T00:20:07;4.90;;;4.40;;
12884;SDS011;6510;51.362;7.370;2023-02-14T00:22:33;8.57;;;4.87;;
12884;SDS011;6510;51.362;7.370;2023-02-14T00:24:59;7.73;;;4.77;;
12884;SDS011;6510;51.362;7.370;2023-02-14T00:27:25;6.40;;;4.83;;
12884;SDS011;6510;51.362;7.370;2023-02-14T00:29:50;5.27;;;4.33;;
12884;SDS011;6510;51.362;7.370;2023-02-14T00:32:17;6.77;;;4.67;;
12884;SDS011;6510;51.362;7.370;2023-02-14T00:34:43;9.17;;;5.20;;
12884;SDS011;6510;51.362;7.370;2023-02-14T00:37:09;8.57;;;5.00;;
12884;SDS011;6510;51.362;7.370;2023-02-14T00:39:34;6.13;;;4.60;;
12884;SDS011;6510;51.362;7.370;2023-02-14T00:42:00;6.93;;;4.93;;
12884;SDS011;6510;51.362;7.370;2023-02-14T00:44:26;5.90;;;4.60;;
12884;SDS011;6510;51.362;7.370;2023-02-14T00:46:52;4.77;;;4.03;;
12884;SDS011;6510;51.362;7.370;2023-02-14T00:49:17;6.67;;;4.77;;
12884;SDS011;6510;51.362;7.370;2023-02-14T00:51:43;6.10;;;4.67;;
12884;SDS011;6510;51.362;7.370;2023-02-14T00:54:09;5.33;;;4.80;;
12884;SDS011;6510;51.362;7.370;2023-02-14T00:56:34;5.37;;;4.30;;
12884;SDS011;6510;51.362;7.370;2023-02-14T00:59:00;5.83;;;4.90;;
12884;SDS011;6510;51.362;7.370;2023-02-14T01:01:26;9.60;;;4.80;;
12884;SDS011;6510;51.362;7.370;2023-02-14T01:03:52;6.07;;;4.70;;
12884;SDS011;6510;51.362;7.370;2023-02-14T01:06:18;5.63;;;4.97;;
12884;SDS011;6510;51.362;7.370;2023-02-14T01:08:44;8.57;;;4.93;;
12884;SDS011;6510;51.362;7.370;2023-02-14T01:11:11;6.33;;;4.80;;
12884;SDS011;6510;51.362;7.370;2023-02-14T01:13:42;6.60;;;4.70;;
12884;SDS011;6510;51.362;7.370;2023-02-14T01:16:10;6.10;;;4.53;;
12884;SDS011;6510;51.362;7.370;2023-02-14T01:18:37;5.70;;;4.37;;
12884;SDS011;6510;51.362;7.370;2023-02-14T01:23:38;5.33;;;4.10;;
12884;SDS011;6510;51.362;7.370;2023-02-14T01:26:06;6.43;;;4.87;;
12884;SDS011;6510;51.362;7.370;2023-02-14T01:28:34;5.73;;;4.70;;
12884;SDS011;6510;51.362;7.370;2023-02-14T01:31:05;7.37;;;4.83;;
12884;SDS011;6510;51.362;7.370;2023-02-14T01:33:31;6.73;;;4.63;;
12884;SDS011;6510;51.362;7.370;2023-02-14T01:35:57;7.70;;;4.70;;
12884;SDS011;6510;51.362;7.370;2023-02-14T01:38:23;5.97;;;4.70;;
12884;SDS011;6510;51.362;7.370;2023-02-14T01:40:48;7.57;;;4.50;;
12884;SDS011;6510;51.362;7.370;2023-02-14T01:43:15;6.37;;;4.80;;
12884;SDS011;6510;51.362;7.370;2023-02-14T01:45:41;6.73;;;5.27;;
12884;SDS011;6510;51.362;7.370;2023-02-14T01:48:06;6.97;;;4.80;;
12884;SDS011;6510;51.362;7.370;2023-02-14T01:50:35;6.47;;;4.67;;
12884;SDS011;6510;51.362;7.370;2023-02-14T01:53:07;6.87;;;4.73;;
12884;SDS011;6510;51.362;7.370;2023-02-14T01:55:45;7.10;;;5.07;;
12884;SDS011;6510;51.362;7.370;2023-02-14T01:58:23;7.83;;;5.07;;
12884;SDS011;6510;51.362;7.370;2023-02-14T02:00:51;6.60;;;4.60;;
12884;SDS011;6510;51.362;7.370;2023-02-14T02:06:05;6.40;;;5.40;;
12884;SDS011;6510;51.362;7.370;2023-02-14T02:08:39;7.03;;;5.23;;
12884;SDS011;6510;51.362;7.370;2023-02-14T02:11:21;8.83;;;5.33;;
12884;SDS011;6510;51.362;7.370;2023-02-14T02:13:46;7.13;;;5.40;;
12884;SDS011;6510;51.362;7.370;2023-02-14T02:16:21;6.63;;;5.10;;
12884;SDS011;6510;51.362;7.370;2023-02-14T02:22:08;6.50;;;4.83;;
12884;SDS011;6510;51.362;7.370;2023-02-14T02:44:56;5.83;;;5.10;;
12884;SDS011;6510;51.362;7.370;2023-02-14T02:47:31;7.10;;;5.27;;
12884;SDS011;6510;51.362;7.370;2023-02-14T02:53:42;7.23;;;5.30;;
12884;SDS011;6510;51.362;7.370;2023-02-14T02:56:30;8.53;;;5.17;;
12884;SDS011;6510;51.362;7.370;2023-02-14T02:59:27;7.90;;;5.83;;
12884;SDS011;6510;51.362;7.370;2023-02-14T03:04:37;7.93;;;6.03;;
12884;SDS011;6510;51.362;7.370;2023-02-14T03:07:39;8.40;;;6.33;;
12884;SDS011;6510;51.362;7.370;2023-02-14T03:21:06;11.80;;;8.30;;
12884;SDS011;6510;51.362;7.370;2023-02-14T03:23:45;14.53;;;9.40;;
12884;SDS011;6510;51.362;7.370;2023-02-14T03:37:47;14.57;;;9.20;;
12884;SDS011;6510;51.362;7.370;2023-02-14T03:40:21;12.77;;;9.03;;
12884;SDS011;6510;51.362;7.370;2023-02-14T03:42:53;13.43;;;8.77;;
12884;SDS011;6510;51.362;7.370;2023-02-14T03:45:29;11.70;;;8.77;;
12884;SDS011;6510;51.362;7.370;2023-02-14T03:48:00;16.90;;;10.40;;
12884;SDS011;6510;51.362;7.370;2023-02-14T03:50:30;16.23;;;10.27;;
12884;SDS011;6510;51.362;7.370;2023-02-14T03:52:58;17.67;;;10.80;;
12884;SDS011;6510;51.362;7.370;2023-02-14T03:55:26;20.37;;;11.47;;
12884;SDS011;6510;51.362;7.370;2023-02-14T04:01:00;18.73;;;11.43;;
12884;SDS011;6510;51.362;7.370;2023-02-14T04:03:30;19.57;;;12.47;;
12884;SDS011;6510;51.362;7.370;2023-02-14T04:05:57;19.20;;;11.30;;
12884;SDS011;6510;51.362;7.370;2023-02-14T04:08:25;18.10;;;11.77;;
12884;SDS011;6510;51.362;7.370;2023-02-14T04:10:52;19.13;;;12.03;;
12884;SDS011;6510;51.362;7.370;2023-02-14T04:13:20;18.63;;;12.30;;
12884;SDS011;6510;51.362;7.370;2023-02-14T04:15:45;20.10;;;12.97;;
12884;SDS011;6510;51.362;7.370;2023-02-14T04:18:11;20.70;;;12.83;;
12884;SDS011;6510;51.362;7.370;2023-02-14T04:20:56;17.93;;;12.60;;
12884;SDS011;6510;51.362;7.370;2023-02-14T04:23:22;17.40;;;10.97;;
12884;SDS011;6510;51.362;7.370;2023-02-14T04:25:48;18.10;;;12.27;;
12884;SDS011;6510;51.362;7.370;2023-02-14T04:28:14;17.57;;;11.63;;
12884;SDS011;6510;51.362;7.370;2023-02-14T04:30:39;17.67;;;11.73;;
12884;SDS011;6510;51.362;7.370;2023-02-14T04:33:05;19.33;;;11.57;;
12884;SDS011;6510;51.362;7.370;2023-02-14T04:35:32;19.07;;;12.30;;
12884;SDS011;6510;51.362;7.370;2023-02-14T04:37:59;19.57;;;12.13;;
12884;SDS011;6510;51.362;7.370;2023-02-14T04:40:26;22.37;;;12.57;;
12884;SDS011;6510;51.362;7.370;2023-02-14T04:42:52;20.17;;;12.70;;
12884;SDS011;6510;51.362;7.370;2023-02-14T04:45:18;17.70;;;11.50;;
12884;SDS011;6510;51.362;7.370;2023-02-14T04:47:44;19.47;;;11.93;;
12884;SDS011;6510;51.362;7.370;2023-02-14T04:50:10;20.67;;;12.77;;
12884;SDS011;6510;51.362;7.370;2023-02-14T04:52:36;19.83;;;12.40;;
12884;SDS011;6510;51.362;7.370;2023-02-14T04:55:03;20.13;;;13.43;;
12884;SDS011;6510;51.362;7.370;2023-02-14T04:57:29;18.80;;;12.73;;
12884;SDS011;6510;51.362;7.370;2023-02-14T04:59:55;22.07;;;13.03;;
12884;SDS011;6510;51.362;7.370;2023-02-14T05:02:21;21.63;;;12.93;;
12884;SDS011;6510;51.362;7.370;2023-02-14T05:04:46;23.20;;;14.67;;
12884;SDS011;6510;51.362;7.370;2023-02-14T05:07:12;23.83;;;14.57;;
12884;SDS011;6510;51.362;7.370;2023-02-14T05:09:38;22.87;;;14.87;;
12884;SDS011;6510;51.362;7.370;2023-02-14T05:12:03;24.10;;;14.77;;
12884;SDS011;6510;51.362;7.370;2023-02-14T05:14:29;23.57;;;15.07;;
12884;SDS011;6510;51.362;7.370;2023-02-14T05:16:55;23.50;;;13.97;;
12884;SDS011;6510;51.362;7.370;2023-02-14T05:19:21;24.93;;;15.53;;
12884;SDS011;6510;51.362;7.370;2023-02-14T05:21:47;26.73;;;14.93;;
12884;SDS011;6510;51.362;7.370;2023-02-14T05:24:12;23.07;;;15.17;;
12884;SDS011;6510;51.362;7.370;2023-02-14T05:26:38;26.77;;;15.97;;
12884;SDS011;6510;51.362;7.370;2023-02-14T05:29:05;24.77;;;15.53;;
12884;SDS011;6510;51.362;7.370;2023-02-14T05:31:31;29.97;;;16.33;;
12884;SDS011;6510;51.362;7.370;2023-02-14T05:33:56;27.20;;;16.43;;
12884;SDS011;6510;51.362;7.370;2023-02-14T05:36:22;26.90;;;15.33;;
12884;SDS011;6510;51.362;7.370;2023-02-14T05:38:48;27.40;;;15.80;;
12884;SDS011;6510;51.362;7.370;2023-02-14T05:41:13;26.27;;;15.40;;
12884;SDS011;6510;51.362;7.370;2023-02-14T05:43:39;26.57;;;15.80;;
12884;SDS011;6510;51.362;7.370;2023-02-14T05:46:05;26.40;;;14.97;;
12884;SDS011;6510;51.362;7.370;2023-02-14T05:48:31;24.60;;;14.57;;
12884;SDS011;6510;51.362;7.370;2023-02-14T05:50:56;23.33;;;14.53;;
12884;SDS011;6510;51.362;7.370;2023-02-14T05:53:26;21.40;;;13.57;;
12884;SDS011;6510;51.362;7.370;2023-02-14T05:55:52;20.73;;;12.40;;
12884;SDS011;6510;51.362;7.370;2023-02-14T05:58:17;23.13;;;13.83;;
12884;SDS011;6510;51.362;7.370;2023-02-14T06:00:46;23.23;;;13.67;;
12884;SDS011;6510;51.362;7.370;2023-02-14T06:03:11;22.10;;;13.37;;
12884;SDS011;6510;51.362;7.370;2023-02-14T06:05:37;22.63;;;13.43;;
12884;SDS011;6510;51.362;7.370;2023-02-14T06:08:03;18.90;;;11.60;;
12884;SDS011;6510;51.362;7.370;2023-02-14T06:10:29;17.80;;;11.43;;
12884;SDS011;6510;51.362;7.370;2023-02-14T06:12:54;17.73;;;11.63;;
12884;SDS011;6510;51.362;7.370;2023-02-14T06:15:20;17.43;;;11.27;;
12884;SDS011;6510;51.362;7.370;2023-02-14T06:17:50;15.90;;;10.03;;
12884;SDS011;6510;51.362;7.370;2023-02-14T06:20:19;18.67;;;10.87;;
12884;SDS011;6510;51.362;7.370;2023-02-14T06:22:46;16.10;;;10.47;;
12884;SDS011;6510;51.362;7.370;2023-02-14T06:25:11;17.80;;;11.10;;
12884;SDS011;6510;51.362;7.370;2023-02-14T06:27:37;19.33;;;10.77;;
12884;SDS011;6510;51.362;7.370;2023-02-14T06:30:03;14.90;;;10.00;;
12884;SDS011;6510;51.362;7.370;2023-02-14T06:32:30;18.73;;;10.33;;
12884;SDS011;6510;51.362;7.370;2023-02-14T06:34:59;16.83;;;11.07;;
12884;SDS011;6510;51.362;7.370;2023-02-14T06:37:24;15.80;;;9.27;;
12884;SDS011;6510;51.362;7.370;2023-02-14T06:39:50;14.53;;;10.17;;
12884;SDS011;6510;51.362;7.370;2023-02-14T06:42:16;14.37;;;9.10;;
12884;SDS011;6510;51.362;7.370;2023-02-14T06:44:42;15.57;;;9.70;;
12884;SDS011;6510;51.362;7.370;2023-02-14T06:47:07;14.83;;;9.07;;
12884;SDS011;6510;51.362;7.370;2023-02-14T06:49:33;12.60;;;9.17;;
12884;SDS011;6510;51.362;7.370;2023-02-14T06:51:59;12.13;;;8.70;;
12884;SDS011;6510;51.362;7.370;2023-02-14T06:54:24;13.30;;;8.70;;
12884;SDS011;6510;51.362;7.370;2023-02-14T06:56:50;12.80;;;8.00;;
12884;SDS011;6510;51.362;7.370;2023-02-14T06:59:15;11.63;;;7.93;;
12884;SDS011;6510;51.362;7.370;2023-02-14T07:01:41;12.60;;;7.67;;
12884;SDS011;6510;51.362;7.370;2023-02-14T07:04:07;12.33;;;7.50;;
12884;SDS011;6510;51.362;7.370;2023-02-14T07:06:34;10.00;;;7.50;;
12884;SDS011;6510;51.362;7.370;2023-02-14T07:09:00;11.93;;;7.67;;
12884;SDS011;6510;51.362;7.370;2023-02-14T07:11:26;11.83;;;6.70;;
12884;SDS011;6510;51.362;7.370;2023-02-14T07:13:52;13.63;;;7.77;;
12884;SDS011;6510;51.362;7.370;2023-02-14T07:16:18;12.60;;;8.07;;
12884;SDS011;6510;51.362;7.370;2023-02-14T07:18:43;13.03;;;7.80;;
12884;SDS011;6510;51.362;7.370;2023-02-14T07:21:09;10.50;;;6.80;;
12884;SDS011;6510;51.362;7.370;2023-02-14T07:23:35;10.00;;;6.27;;
12884;SDS011;6510;51.362;7.370;2023-02-14T07:26:00;9.43;;;6.70;;
12884;SDS011;6510;51.362;7.370;2023-02-14T07:28:26;11.30;;;6.33;;
12884;SDS011;6510;51.362;7.370;2023-02-14T07:30:52;9.00;;;6.27;;
12884;SDS011;6510;51.362;7.370;2023-02-14T07:33:17;9.70;;;6.50;;
12884;SDS011;6510;51.362;7.370;2023-02-14T07:35:43;9.37;;;6.17;;
12884;SDS011;6510;51.362;7.370;2023-02-14T07:38:08;7.00;;;5.70;;
12884;SDS011;6510;51.362;7.370;2023-02-14T07:40:34;8.80;;;6.23;;
12884;SDS011;6510;51.362;7.370;2023-02-14T07:43:00;7.27;;;6.30;;
12884;SDS011;6510;51.362;7.370;2023-02-14T07:45:25;8.47;;;6.50;;
12884;SDS011;6510;51.362;7.370;2023-02-14T07:47:52;9.00;;;6.30;;
12884;SDS011;6510;51.362;7.370;2023-02-14T07:50:20;8.20;;;6.00;;
12884;SDS011;6510;51.362;7.370;2023-02-14T07:52:46;6.83;;;5.70;;
12884;SDS011;6510;51.362;7.370;2023-02-14T07:55:12;7.30;;;5.80;;
12884;SDS011;6510;51.362;7.370;2023-02-14T07:57:37;8.30;;;5.67;;
12884;SDS011;6510;51.362;7.370;2023-02-14T08:00:04;9.00;;;6.03;;
12884;SDS011;6510;51.362;7.370;2023-02-14T08:02:30;8.67;;;5.90;;
12884;SDS011;6510;51.362;7.370;2023-02-14T08:04:56;9.37;;;6.43;;
12884;SDS011;6510;51.362;7.370;2023-02-14T08:07:21;8.03;;;6.17;;
12884;SDS011;6510;51.362;7.370;2023-02-14T08:09:47;7.67;;;6.43;;
12884;SDS011;6510;51.362;7.370;2023-02-14T08:12:13;8.30;;;6.00;;
12884;SDS011;6510;51.362;7.370;2023-02-14T08:14:57;7.50;;;6.20;;
12884;SDS011;6510;51.362;7.370;2023-02-14T08:17:42;7.87;;;6.30;;
12884;SDS011;6510;51.362;7.370;2023-02-14T08:20:08;8.67;;;6.10;;
12884;SDS011;6510;51.362;7.370;2023-02-14T08:22:36;9.27;;;6.10;;
12884;SDS011;6510;51.362;7.370;2023-02-14T08:25:02;7.87;;;6.17;;
12884;SDS011;6510;51.362;7.370;2023-02-14T08:27:28;7.60;;;6.07;;
12884;SDS011;6510;51.362;7.370;2023-02-14T08:29:53;8.37;;;5.80;;
12884;SDS011;6510;51.362;7.370;2023-02-14T08:32:19;7.80;;;6.03;;
12884;SDS011;6510;51.362;7.370;2023-02-14T08:34:45;8.07;;;6.10;;
12884;SDS011;6510;51.362;7.370;2023-02-14T08:37:11;8.70;;;6.20;;
12884;SDS011;6510;51.362;7.370;2023-02-14T08:39:37;9.07;;;6.20;;
12884;SDS011;6510;51.362;7.370;2023-02-14T08:42:04;8.20;;;6.20;;
12884;SDS011;6510;51.362;7.370;2023-02-14T08:44:30;8.50;;;6.67;;
12884;SDS011;6510;51.362;7.370;2023-02-14T08:46:56;8.83;;;6.60;;
12884;SDS011;6510;51.362;7.370;2023-02-14T08:49:21;8.70;;;6.73;;
12884;SDS011;6510;51.362;7.370;2023-02-14T08:51:47;9.13;;;6.53;;
12884;SDS011;6510;51.362;7.370;2023-02-14T08:54:13;6.77;;;6.03;;
12884;SDS011;6510;51.362;7.370;2023-02-14T08:56:39;9.67;;;6.30;;
12884;SDS011;6510;51.362;7.370;2023-02-14T08:59:04;6.57;;;5.83;;
12884;SDS011;6510;51.362;7.370;2023-02-14T09:01:30;7.57;;;6.00;;
12884;SDS011;6510;51.362;7.370;2023-02-14T09:03:56;7.67;;;6.30;;
12884;SDS011;6510;51.362;7.370;2023-02-14T09:06:22;7.47;;;6.10;;
12884;SDS011;6510;51.362;7.370;2023-02-14T09:08:48;7.97;;;6.13;;
12884;SDS011;6510;51.362;7.370;2023-02-14T09:11:15;8.13;;;6.43;;
12884;SDS011;6510;51.362;7.370;2023-02-14T09:13:46;8.17;;;6.53;;
12884;SDS011;6510;51.362;7.370;2023-02-14T09:16:13;7.47;;;5.80;;
12884;SDS011;6510;51.362;7.370;2023-02-14T09:18:43;8.30;;;6.23;;
12884;SDS011;6510;51.362;7.370;2023-02-14T09:21:14;9.13;;;6.10;;
12884;SDS011;6510;51.362;7.370;2023-02-14T09:23:42;10.33;;;6.17;;
12884;SDS011;6510;51.362;7.370;2023-02-14T09:26:08;7.20;;;5.47;;
12884;SDS011;6510;51.362;7.370;2023-02-14T09:28:36;7.17;;;5.60;;
12884;SDS011;6510;51.362;7.370;2023-02-14T09:31:12;7.43;;;5.63;;
12884;SDS011;6510;51.362;7.370;2023-02-14T09:33:41;8.37;;;5.53;;
12884;SDS011;6510;51.362;7.370;2023-02-14T09:36:08;6.07;;;5.40;;
12884;SDS011;6510;51.362;7.370;2023-02-14T09:38:52;6.13;;;5.30;;
12884;SDS011;6510;51.362;7.370;2023-02-14T09:46:28;6.80;;;5.70;;
12884;SDS011;6510;51.362;7.370;2023-02-14T09:48:58;7.50;;;5.20;;
12884;SDS011;6510;51.362;7.370;2023-02-14T09:51:25;8.17;;;5.67;;
12884;SDS011;6510;51.362;7.370;2023-02-14T10:01:39;6.80;;;5.20;;
12884;SDS011;6510;51.362;7.370;2023-02-14T10:11:48;6.77;;;4.80;;
12884;SDS011;6510;51.362;7.370;2023-02-14T10:14:25;7.13;;;5.50;;
12884;SDS011;6510;51.362;7.370;2023-02-14T10:16:58;7.47;;;5.40;;
12884;SDS011;6510;51.362;7.370;2023-02-14T10:22:26;6.13;;;4.90;;
12884;SDS011;6510;51.362;7.370;2023-02-14T10:25:16;5.97;;;5.13;;
12884;SDS011;6510;51.362;7.370;2023-02-14T10:27:46;5.90;;;4.80;;
12884;SDS011;6510;51.362;7.370;2023-02-14T10:30:19;6.53;;;5.10;;
12884;SDS011;6510;51.362;7.370;2023-02-14T10:35:48;6.00;;;5.00;;
12884;SDS011;6510;51.362;7.370;2023-02-14T10:38:26;6.00;;;4.67;;
12884;SDS011;6510;51.362;7.370;2023-02-14T10:43:52;6.63;;;4.90;;
12884;SDS011;6510;51.362;7.370;2023-02-14T10:46:48;5.50;;;4.90;;
12884;SDS011;6510;51.362;7.370;2023-02-14T10:49:45;5.20;;;4.70;;
12884;SDS011;6510;51.362;7.370;2023-02-14T10:52:38;6.53;;;4.97;;
12884;SDS011;6510;51.362;7.370;2023-02-14T10:55:13;5.87;;;4.80;;
12884;SDS011;6510;51.362;7.370;2023-02-14T10:57:50;4.97;;;4.40;;
12884;SDS011;6510;51.362;7.370;2023-02-14T11:02:49;5.90;;;4.60;;
12884;SDS011;6510;51.362;7.370;2023-02-14T11:07:51;6.03;;;4.53;;
12884;SDS011;6510;51.362;7.370;2023-02-14T11:10:22;4.75;;;4.20;;
12884;SDS011;6510;51.362;7.370;2023-02-14T11:12:56;5.07;;;4.50;;
12884;SDS011;6510;51.362;7.370;2023-02-14T11:15:24;5.07;;;4.57;;
12884;SDS011;6510;51.362;7.370;2023-02-14T11:20:41;5.07;;;4.00;;
12884;SDS011;6510;51.362;7.370;2023-02-14T11:23:17;5.63;;;4.75;;
12884;SDS011;6510;51.362;7.370;2023-02-14T11:25:48;4.80;;;4.40;;
12884;SDS011;6510;51.362;7.370;2023-02-14T11:28:15;5.68;;;4.70;;
12884;SDS011;6510;51.362;7.370;2023-02-14T11:30:44;5.35;;;4.85;;
12884;SDS011;6510;51.362;7.370;2023-02-14T11:33:12;5.43;;;4.93;;
12884;SDS011;6510;51.362;7.370;2023-02-14T11:36:04;5.00;;;4.50;;
12884;SDS011;6510;51.362;7.370;2023-02-14T11:38:35;4.88;;;4.47;;
12884;SDS011;6510;51.362;7.370;2023-02-14T11:41:04;5.40;;;4.78;;
12884;SDS011;6510;51.362;7.370;2023-02-14T11:43:36;5.60;;;4.75;;
12884;SDS011;6510;51.362;7.370;2023-02-14T11:46:07;5.68;;;4.90;;
12884;SDS011;6510;51.362;7.370;2023-02-14T11:48:55;5.97;;;5.10;;
12884;SDS011;6510;51.362;7.370;2023-02-14T11:53:57;6.20;;;5.03;;
12884;SDS011;6510;51.362;7.370;2023-02-14T11:56:42;6.30;;;5.70;;
12884;SDS011;6510;51.362;7.370;2023-02-14T11:59:11;5.90;;;5.13;;
12884;SDS011;6510;51.362;7.370;2023-02-14T12:01:47;6.25;;;5.65;;
12884;SDS011;6510;51.362;7.370;2023-02-14T12:04:18;6.95;;;6.25;;
12884;SDS011;6510;51.362;7.370;2023-02-14T12:06:47;6.55;;;5.80;;
12884;SDS011;6510;51.362;7.370;2023-02-14T12:11:57;6.55;;;5.80;;
12884;SDS011;6510;51.362;7.370;2023-02-14T12:14:24;6.78;;;5.18;;
12884;SDS011;6510;51.362;7.370;2023-02-14T12:17:08;6.03;;;5.32;;
12884;SDS011;6510;51.362;7.370;2023-02-14T12:22:38;6.50;;;5.90;;
12884;SDS011;6510;51.362;7.370;2023-02-14T12:25:27;7.80;;;6.28;;
12884;SDS011;6510;51.362;7.370;2023-02-14T12:28:13;8.40;;;6.25;;
12884;SDS011;6510;51.362;7.370;2023-02-14T12:30:43;7.68;;;6.55;;
12884;SDS011;6510;51.362;7.370;2023-02-14T12:33:13;6.80;;;6.10;;
12884;SDS011;6510;51.362;7.370;2023-02-14T12:41:13;8.15;;;6.57;;
12884;SDS011;6510;51.362;7.370;2023-02-14T12:46:22;6.20;;;5.60;;
12884;SDS011;6510;51.362;7.370;2023-02-14T12:54:37;7.35;;;5.32;;
12884;SDS011;6510;51.362;7.370;2023-02-14T13:01:16;5.82;;;5.28;;
12884;SDS011;6510;51.362;7.370;2023-02-14T13:13:45;6.35;;;4.93;;
12884;SDS011;6510;51.362;7.370;2023-02-14T13:16:22;6.75;;;4.75;;
12884;SDS011;6510;51.362;7.370;2023-02-14T13:22:07;6.05;;;5.18;;
12884;SDS011;6510;51.362;7.370;2023-02-14T13:24:41;5.07;;;4.57;;
12884;SDS011;6510;51.362;7.370;2023-02-14T13:27:15;5.57;;;4.90;;
12884;SDS011;6510;51.362;7.370;2023-02-14T13:29:50;6.90;;;4.90;;
12884;SDS011;6510;51.362;7.370;2023-02-14T13:32:22;6.03;;;5.18;;
12884;SDS011;6510;51.362;7.370;2023-02-14T13:34:52;8.93;;;5.93;;
12884;SDS011;6510;51.362;7.370;2023-02-14T13:37:20;6.28;;;5.65;;
12884;SDS011;6510;51.362;7.370;2023-02-14T13:48:03;6.13;;;5.53;;
12884;SDS011;6510;51.362;7.370;2023-02-14T13:50:37;5.70;;;5.10;;
12884;SDS011;6510;51.362;7.370;2023-02-14T13:53:09;7.57;;;5.25;;
12884;SDS011;6510;51.362;7.370;2023-02-14T13:55:36;7.25;;;5.10;;
12884;SDS011;6510;51.362;7.370;2023-02-14T13:58:18;6.57;;;5.45;;
12884;SDS011;6510;51.362;7.370;2023-02-14T14:00:48;7.38;;;5.97;;
12884;SDS011;6510;51.362;7.370;2023-02-14T14:06:11;7.03;;;6.22;;
12884;SDS011;6510;51.362;7.370;2023-02-14T14:08:38;7.75;;;6.38;;
12884;SDS011;6510;51.362;7.370;2023-02-14T14:16:26;5.38;;;4.88;;
12884;SDS011;6510;51.362;7.370;2023-02-14T14:24:15;9.02;;;6.22;;
12884;SDS011;6510;51.362;7.370;2023-02-14T14:27:12;8.52;;;6.53;;
12884;SDS011;6510;51.362;7.370;2023-02-14T14:29:55;7.38;;;6.40;;
12884;SDS011;6510;51.362;7.370;2023-02-14T14:32:33;6.25;;;5.65;;
12884;SDS011;6510;51.362;7.370;2023-02-14T14:35:02;6.97;;;5.75;;
12884;SDS011;6510;51.362;7.370;2023-02-14T14:37:31;6.68;;;5.97;;
12884;SDS011;6510;51.362;7.370;2023-02-14T14:39:59;7.50;;;5.53;;
12884;SDS011;6510;51.362;7.370;2023-02-14T14:42:39;7.70;;;5.97;;
12884;SDS011;6510;51.362;7.370;2023-02-14T14:45:18;8.70;;;6.03;;
12884;SDS011;6510;51.362;7.370;2023-02-14T14:47:47;7.43;;;6.30;;
12884;SDS011;6510;51.362;7.370;2023-02-14T14:50:16;9.17;;;6.57;;
12884;SDS011;6510;51.362;7.370;2023-02-14T14:52:48;8.68;;;5.75;;
12884;SDS011;6510;51.362;7.370;2023-02-14T14:55:17;11.27;;;6.70;;
12884;SDS011;6510;51.362;7.370;2023-02-14T14:57:48;8.55;;;6.35;;
12884;SDS011;6510;51.362;7.370;2023-02-14T15:00:23;8.32;;;6.43;;
12884;SDS011;6510;51.362;7.370;2023-02-14T15:03:01;6.88;;;5.95;;
12884;SDS011;6510;51.362;7.370;2023-02-14T15:05:44;7.33;;;6.50;;
12884;SDS011;6510;51.362;7.370;2023-02-14T15:08:20;6.63;;;6.00;;
12884;SDS011;6510;51.362;7.370;2023-02-14T15:13:44;7.00;;;5.80;;
12884;SDS011;6510;51.362;7.370;2023-02-14T15:16:17;7.07;;;6.37;;
12884;SDS011;6510;51.362;7.370;2023-02-14T15:19:08;7.50;;;6.40;;
12884;SDS011;6510;51.362;7.370;2023-02-14T15:21:39;7.43;;;5.67;;
12884;SDS011;6510;51.362;7.370;2023-02-14T15:24:08;17.03;;;6.93;;
12884;SDS011;6510;51.362;7.370;2023-02-14T15:26:37;7.00;;;5.93;;
12884;SDS011;6510;51.362;7.370;2023-02-14T15:29:06;8.03;;;6.27;;
12884;SDS011;6510;51.362;7.370;2023-02-14T15:31:33;6.97;;;5.70;;
12884;SDS011;6510;51.362;7.370;2023-02-14T15:34:04;7.90;;;6.30;;
12884;SDS011;6510;51.362;7.370;2023-02-14T15:36:31;7.93;;;6.00;;
12884;SDS011;6510;51.362;7.370;2023-02-14T15:39:03;8.53;;;6.00;;
12884;SDS011;6510;51.362;7.370;2023-02-14T15:41:31;7.33;;;5.90;;
12884;SDS011;6510;51.362;7.370;2023-02-14T15:43:56;6.60;;;5.43;;
12884;SDS011;6510;51.362;7.370;2023-02-14T15:48:48;8.97;;;6.33;;
12884;SDS011;6510;51.362;7.370;2023-02-14T15:51:16;8.67;;;6.40;;
12884;SDS011;6510;51.362;7.370;2023-02-14T15:53:49;9.17;;;6.20;;
12884;SDS011;6510;51.362;7.370;2023-02-14T15:56:20;8.40;;;6.50;;
12884;SDS011;6510;51.362;7.370;2023-02-14T16:01:31;9.53;;;6.97;;
12884;SDS011;6510;51.362;7.370;2023-02-14T16:03:59;9.40;;;7.17;;
12884;SDS011;6510;51.362;7.370;2023-02-14T16:06:36;8.57;;;6.80;;
12884;SDS011;6510;51.362;7.370;2023-02-14T16:09:21;8.30;;;6.70;;
12884;SDS011;6510;51.362;7.370;2023-02-14T16:11:51;7.83;;;6.00;;
12884;SDS011;6510;51.362;7.370;2023-02-14T16:14:19;7.77;;;5.87;;
12884;SDS011;6510;51.362;7.370;2023-02-14T16:16:55;9.57;;;6.30;;
12884;SDS011;6510;51.362;7.370;2023-02-14T16:19:32;8.50;;;6.10;;
12884;SDS011;6510;51.362;7.370;2023-02-14T16:22:01;8.47;;;6.30;;
12884;SDS011;6510;51.362;7.370;2023-02-14T16:24:26;8.23;;;5.90;;
12884;SDS011;6510;51.362;7.370;2023-02-14T16:26:53;9.10;;;6.37;;
12884;SDS011;6510;51.362;7.370;2023-02-14T16:29:19;8.20;;;6.17;;
12884;SDS011;6510;51.362;7.370;2023-02-14T16:31:48;10.43;;;6.67;;
12884;SDS011;6510;51.362;7.370;2023-02-14T16:34:24;9.00;;;6.20;;
12884;SDS011;6510;51.362;7.370;2023-02-14T16:36:50;7.97;;;5.70;;
12884;SDS011;6510;51.362;7.370;2023-02-14T16:39:20;8.63;;;6.40;;
12884;SDS011;6510;51.362;7.370;2023-02-14T16:41:48;7.30;;;6.43;;
12884;SDS011;6510;51.362;7.370;2023-02-14T16:44:18;6.83;;;6.13;;
12884;SDS011;6510;51.362;7.370;2023-02-14T16:46:44;9.37;;;6.43;;
12884;SDS011;6510;51.362;7.370;2023-02-14T16:49:11;9.00;;;5.93;;
12884;SDS011;6510;51.362;7.370;2023-02-14T16:51:38;10.23;;;6.60;;
12884;SDS011;6510;51.362;7.370;2023-02-14T16:54:11;7.00;;;6.03;;
12884;SDS011;6510;51.362;7.370;2023-02-14T16:56:53;8.63;;;6.80;;
12884;SDS011;6510;51.362;7.370;2023-02-14T16:59:23;8.93;;;6.63;;
12884;SDS011;6510;51.362;7.370;2023-02-14T17:01:49;8.73;;;6.87;;
12884;SDS011;6510;51.362;7.370;2023-02-14T17:04:15;11.43;;;6.80;;
12884;SDS011;6510;51.362;7.370;2023-02-14T17:06:43;10.70;;;7.67;;
12884;SDS011;6510;51.362;7.370;2023-02-14T17:09:13;9.33;;;6.30;;
12884;SDS011;6510;51.362;7.370;2023-02-14T17:11:44;10.87;;;6.43;;
12884;SDS011;6510;51.362;7.370;2023-02-14T17:14:14;9.77;;;6.70;;
12884;SDS011;6510;51.362;7.370;2023-02-14T17:16:43;10.07;;;7.73;;
12884;SDS011;6510;51.362;7.370;2023-02-14T17:19:09;9.23;;;7.03;;
12884;SDS011;6510;51.362;7.370;2023-02-14T17:21:35;10.43;;;7.43;;
12884;SDS011;6510;51.362;7.370;2023-02-14T17:24:02;14.47;;;7.97;;
12884;SDS011;6510;51.362;7.370;2023-02-14T17:26:28;10.53;;;7.03;;
12884;SDS011;6510;51.362;7.370;2023-02-14T17:28:54;10.80;;;7.53;;
12884;SDS011;6510;51.362;7.370;2023-02-14T17:31:19;9.93;;;6.93;;
12884;SDS011;6510;51.362;7.370;2023-02-14T17:33:45;9.97;;;7.10;;
12884;SDS011;6510;51.362;7.370;2023-02-14T17:36:11;10.13;;;7.03;;
12884;SDS011;6510;51.362;7.370;2023-02-14T17:38:38;10.40;;;7.40;;
12884;SDS011;6510;51.362;7.370;2023-02-14T17:44:02;7.97;;;6.77;;
12884;SDS011;6510;51.362;7.370;2023-02-14T17:46:29;9.87;;;6.47;;
12884;SDS011;6510;51.362;7.370;2023-02-14T17:48:56;8.77;;;6.50;;
12884;SDS011;6510;51.362;7.370;2023-02-14T17:51:22;10.10;;;6.90;;
12884;SDS011;6510;51.362;7.370;2023-02-14T17:53:48;9.87;;;6.93;;
12884;SDS011;6510;51.362;7.370;2023-02-14T17:56:21;11.37;;;6.60;;
12884;SDS011;6510;51.362;7.370;2023-02-14T17:58:48;10.73;;;6.40;;